createdAt,value
2019-03-11T00:00:37.544Z,2.02
2019-03-11T00:03:06.444Z,2.17
2019-03-11T00:05:34.907Z,1.50
2019-03-11T00:08:04.994Z,1.60
2019-03-11T00:10:33.434Z,1.80
2019-03-11T00:13:02.002Z,1.72
2019-03-11T00:15:30.523Z,1.87
2019-03-11T00:18:01.734Z,1.80
2019-03-11T00:20:32.363Z,1.52
2019-03-11T00:23:01.173Z,1.50
2019-03-11T00:25:31.314Z,1.85
2019-03-11T00:28:01.278Z,1.80
2019-03-11T00:30:29.812Z,1.65
2019-03-11T00:32:58.311Z,1.72
2019-03-11T00:35:29.249Z,1.72
2019-03-11T00:37:59.244Z,1.77
2019-03-11T00:40:29.077Z,1.98
2019-03-11T00:42:59.184Z,1.60
2019-03-11T00:45:27.634Z,1.70
2019-03-11T00:48:01.947Z,1.55
2019-03-11T00:50:29.199Z,1.82
2019-03-11T00:52:59.089Z,1.67
2019-03-11T00:55:27.618Z,1.87
2019-03-11T00:57:57.613Z,1.52
2019-03-11T01:00:37.381Z,2.15
2019-03-11T01:03:05.977Z,1.75
2019-03-11T01:05:35.507Z,2.30
2019-03-11T01:08:04.964Z,1.95
2019-03-11T01:10:33.451Z,1.93
2019-03-11T01:13:03.012Z,1.82
2019-03-11T01:15:32.843Z,1.75
2019-03-11T01:18:01.311Z,1.70
2019-03-11T01:20:29.761Z,1.95
2019-03-11T01:22:59.565Z,1.95
2019-03-11T01:25:28.966Z,2.12
2019-03-11T01:27:57.486Z,2.25
2019-03-11T01:30:25.939Z,1.82
2019-03-11T01:32:54.690Z,1.65
2019-03-11T01:35:23.169Z,1.70
2019-03-11T01:37:54.878Z,1.65
2019-03-11T01:40:23.392Z,1.57
2019-03-11T01:42:52.072Z,1.82
2019-03-11T01:45:21.948Z,1.92
2019-03-11T01:47:52.262Z,2.05
2019-03-11T01:50:21.267Z,2.20
2019-03-11T01:52:49.735Z,1.75
2019-03-11T01:55:18.203Z,1.62
2019-03-11T01:57:49.483Z,2.33
2019-03-11T02:00:19.590Z,1.98
2019-03-11T02:02:49.365Z,1.70
2019-03-11T02:05:20.200Z,1.50
2019-03-11T02:07:50.119Z,2.33
2019-03-11T02:10:20.716Z,1.70
2019-03-11T02:12:49.298Z,1.87
2019-03-11T02:15:19.892Z,1.90
2019-03-11T02:17:48.425Z,1.52
2019-03-11T02:20:19.435Z,2.20
2019-03-11T02:22:48.006Z,1.42
2019-03-11T02:25:16.671Z,1.63
2019-03-11T02:27:46.716Z,1.37
2019-03-11T02:30:19.769Z,2.00
2019-03-11T02:32:51.604Z,1.43
2019-03-11T02:35:30.322Z,1.50
2019-03-11T02:38:01.275Z,1.60
2019-03-11T02:40:30.536Z,2.05
2019-03-11T02:43:00.747Z,1.90
2019-03-11T02:45:29.339Z,2.00
2019-03-11T02:47:59.153Z,2.00
2019-03-11T02:50:29.504Z,1.40
2019-03-11T02:53:00.507Z,1.57
2019-03-11T02:55:40.188Z,1.95
2019-03-11T02:58:11.697Z,1.77
2019-03-11T03:00:43.638Z,1.80
2019-03-11T03:03:15.990Z,2.08
2019-03-11T03:05:50.097Z,1.50
2019-03-11T03:08:19.322Z,2.05
2019-03-11T03:10:47.840Z,1.82
2019-03-11T03:13:17.051Z,2.17
2019-03-11T03:15:47.279Z,1.95
2019-03-11T03:18:15.817Z,1.92
2019-03-11T03:20:44.310Z,2.33
2019-03-11T03:23:12.949Z,1.82
2019-03-11T03:25:42.746Z,2.22
2019-03-11T03:28:11.216Z,2.08
2019-03-11T03:30:39.668Z,2.35
2019-03-11T03:33:09.736Z,1.92
2019-03-11T03:35:41.801Z,2.27
2019-03-11T03:38:11.662Z,2.70
2019-03-11T03:40:41.737Z,2.05
2019-03-11T03:43:10.486Z,2.08
2019-03-11T03:45:44.153Z,2.33
2019-03-11T03:48:14.639Z,2.30
2019-03-11T03:50:46.572Z,2.87
2019-03-11T03:53:15.329Z,2.10
2019-03-11T03:55:43.932Z,2.05
2019-03-11T03:58:12.524Z,2.17
2019-03-11T04:00:41.059Z,2.12
2019-03-11T04:03:15.875Z,2.35
2019-03-11T04:05:41.796Z,3.15
2019-03-11T04:08:14.331Z,2.58
2019-03-11T04:10:42.880Z,2.13
2019-03-11T04:13:12.443Z,3.00
2019-03-11T04:15:42.140Z,2.33
2019-03-11T04:18:10.789Z,2.80
2019-03-11T04:20:39.383Z,2.05
2019-03-11T04:23:08.700Z,2.83
2019-03-11T04:25:38.483Z,2.22
2019-03-11T04:28:07.082Z,2.22
2019-03-11T04:30:42.076Z,2.33
2019-03-11T04:33:12.396Z,2.75
2019-03-11T04:35:44.749Z,2.08
2019-03-11T04:38:14.529Z,2.12
2019-03-11T04:40:42.993Z,2.02
2019-03-11T04:43:16.707Z,2.30
2019-03-11T04:45:45.200Z,2.10
2019-03-11T04:48:13.727Z,1.75
2019-03-11T04:50:42.276Z,1.92
2019-03-11T04:53:10.817Z,1.75
2019-03-11T04:55:40.773Z,1.60
2019-03-11T04:58:09.225Z,1.74
2019-03-11T05:00:37.839Z,1.70
2019-03-11T05:03:10.955Z,1.92
2019-03-11T05:05:42.257Z,3.03
2019-03-11T05:08:10.757Z,2.00
2019-03-11T05:10:43.956Z,2.40
2019-03-11T05:13:14.469Z,2.80
2019-03-11T05:15:44.157Z,2.27
2019-03-11T05:18:13.405Z,2.40
2019-03-11T05:20:41.863Z,2.30
2019-03-11T05:23:10.363Z,2.20
2019-03-11T05:25:38.885Z,2.05
2019-03-11T05:28:08.934Z,2.50
2019-03-11T05:30:38.088Z,2.65
2019-03-11T05:33:06.687Z,2.20
2019-03-11T05:35:35.149Z,2.50
2019-03-11T05:38:04.969Z,2.08
2019-03-11T05:40:33.429Z,2.30
2019-03-11T05:43:02.076Z,2.70
2019-03-11T05:45:31.123Z,2.65
2019-03-11T05:48:06.205Z,2.85
2019-03-11T05:50:36.982Z,2.60
2019-03-11T05:53:07.698Z,2.77
2019-03-11T05:55:36.145Z,2.80
2019-03-11T05:58:04.673Z,3.55
2019-03-11T06:00:34.078Z,2.70
2019-03-11T06:03:02.539Z,2.15
2019-03-11T06:05:33.116Z,2.98
2019-03-11T06:08:04.564Z,2.35
2019-03-11T06:10:35.834Z,1.75
2019-03-11T06:13:05.609Z,1.87
2019-03-11T06:15:37.045Z,1.57
2019-03-11T06:18:05.485Z,2.08
2019-03-11T06:20:41.236Z,2.47
2019-03-11T06:23:11.810Z,1.85
2019-03-11T06:25:42.163Z,1.05
2019-03-11T06:28:12.030Z,1.42
2019-03-11T06:30:40.635Z,1.32
2019-03-11T06:33:13.913Z,2.00
2019-03-11T06:35:46.542Z,2.17
2019-03-11T06:38:15.009Z,2.67
2019-03-11T06:40:46.107Z,2.90
2019-03-11T06:43:15.349Z,3.42
2019-03-11T06:45:45.891Z,2.92
2019-03-11T06:48:14.348Z,3.55
2019-03-11T06:50:43.125Z,3.22
2019-03-11T06:53:16.789Z,3.75
2019-03-11T06:55:45.238Z,4.03
2019-03-11T06:58:15.025Z,3.50
2019-03-11T07:00:43.510Z,5.47
2019-03-11T07:03:12.140Z,3.80
2019-03-11T07:05:40.606Z,2.83
2019-03-11T07:08:11.154Z,3.22
2019-03-11T07:10:39.832Z,3.70
2019-03-11T07:13:09.811Z,3.58
2019-03-11T07:15:38.367Z,3.50
2019-03-11T07:18:06.886Z,2.55
2019-03-11T07:20:35.412Z,2.65
2019-03-11T07:23:05.401Z,3.83
2019-03-11T07:25:33.872Z,2.77
2019-03-11T07:28:02.383Z,3.30
2019-03-11T07:30:33.041Z,3.30
2019-03-11T07:33:07.090Z,3.58
2019-03-11T07:35:35.855Z,2.60
2019-03-11T07:38:08.334Z,3.35
2019-03-11T07:40:39.940Z,2.75
2019-03-11T07:43:08.463Z,3.00
2019-03-11T07:45:36.916Z,2.42
2019-03-11T07:48:09.471Z,3.22
2019-03-11T07:50:37.170Z,2.90
2019-03-11T07:53:06.488Z,2.33
2019-03-11T07:55:36.518Z,2.70
2019-03-11T07:58:06.724Z,2.58
2019-03-11T08:00:35.224Z,2.77
2019-03-11T08:03:04.372Z,2.30
2019-03-11T08:05:32.852Z,1.20
2019-03-11T08:08:04.090Z,1.57
2019-03-11T08:10:32.702Z,2.27
2019-03-11T08:13:01.164Z,2.35
2019-03-11T08:15:29.679Z,2.12
2019-03-11T08:17:58.125Z,2.50
2019-03-11T08:20:28.835Z,2.47
2019-03-11T08:23:00.487Z,2.87
2019-03-11T08:25:28.931Z,2.67
2019-03-11T08:27:57.401Z,2.47
2019-03-11T08:30:27.180Z,3.02
2019-03-11T08:32:55.674Z,3.35
2019-03-11T08:35:24.148Z,3.22
2019-03-11T08:37:52.601Z,3.52
2019-03-11T08:40:24.639Z,3.17
2019-03-11T08:42:53.099Z,2.75
2019-03-11T08:45:21.824Z,2.42
2019-03-11T08:47:53.316Z,2.27
2019-03-11T08:50:22.540Z,2.67
2019-03-11T08:52:52.091Z,2.55
2019-03-11T08:55:20.875Z,2.10
2019-03-11T08:57:49.344Z,2.47
2019-03-11T09:00:20.486Z,2.15
2019-03-11T09:02:48.955Z,2.62
2019-03-11T09:05:17.496Z,2.37
2019-03-11T09:07:47.833Z,2.10
2019-03-11T09:10:19.691Z,2.60
2019-03-11T09:12:48.311Z,2.80
2019-03-11T09:15:18.695Z,2.80
2019-03-11T09:17:47.182Z,3.42
2019-03-11T09:20:16.989Z,3.05
2019-03-11T09:22:46.004Z,2.17
2019-03-11T09:25:26.354Z,3.10
2019-03-11T09:27:55.220Z,3.22
2019-03-11T09:30:24.299Z,2.72
2019-03-11T09:32:52.924Z,2.60
2019-03-11T09:35:21.648Z,2.90
2019-03-11T09:37:50.464Z,3.10
2019-03-11T09:40:20.585Z,3.90
2019-03-11T09:42:49.141Z,2.70
2019-03-11T09:45:24.713Z,2.85
2019-03-11T09:47:53.325Z,3.58
2019-03-11T09:50:21.803Z,2.77
2019-03-11T09:52:56.940Z,2.87
2019-03-11T09:55:27.433Z,3.27
2019-03-11T09:57:55.960Z,3.10
2019-03-11T10:00:31.919Z,3.17
2019-03-11T10:03:00.541Z,2.87
2019-03-11T10:05:29.001Z,2.95
2019-03-11T10:07:57.735Z,2.25
2019-03-11T10:10:28.474Z,2.80
2019-03-11T10:12:57.000Z,2.30
2019-03-11T10:15:25.457Z,2.17
2019-03-11T10:17:53.937Z,3.02
2019-03-11T10:20:23.221Z,2.50
2019-03-11T10:22:51.813Z,2.70
2019-03-11T10:25:22.889Z,3.10
2019-03-11T10:27:51.466Z,3.25
2019-03-11T10:30:23.117Z,2.25
2019-03-11T10:32:51.588Z,2.80
2019-03-11T10:35:31.922Z,1.32
2019-03-11T10:37:51.210Z,2.85
2019-03-11T10:40:27.347Z,3.07
2019-03-11T10:42:56.141Z,2.45
2019-03-11T10:45:31.532Z,2.50
2019-03-11T10:47:55.967Z,2.80
2019-03-11T10:50:24.501Z,2.80
2019-03-11T10:52:56.132Z,2.02
2019-03-11T10:55:26.938Z,1.60
2019-03-11T10:57:55.441Z,1.98
2019-03-11T11:00:27.542Z,1.32
2019-03-11T11:02:58.976Z,2.62
2019-03-11T11:05:27.589Z,2.17
2019-03-11T11:07:56.183Z,2.27
2019-03-11T11:10:24.707Z,1.87
2019-03-11T11:12:54.863Z,1.80
2019-03-11T11:15:28.987Z,1.75
2019-03-11T11:17:58.579Z,2.60
2019-03-11T11:20:31.625Z,2.22
2019-03-11T11:23:01.587Z,1.77
2019-03-11T11:25:34.471Z,2.05
2019-03-11T11:28:03.864Z,2.03
2019-03-11T11:30:34.373Z,1.90
2019-03-11T11:33:02.908Z,2.30
2019-03-11T11:35:31.582Z,2.33
2019-03-11T11:38:00.115Z,1.85
2019-03-11T11:40:33.154Z,2.47
2019-03-11T11:43:01.759Z,1.73
2019-03-11T11:45:31.643Z,1.85
2019-03-11T11:48:00.262Z,2.05
2019-03-11T11:50:30.710Z,1.90
2019-03-11T11:52:59.203Z,3.00
2019-03-11T11:55:27.757Z,2.12
2019-03-11T11:57:56.354Z,2.05
2019-03-11T12:00:36.618Z,1.82
2019-03-11T12:03:05.335Z,2.10
2019-03-11T12:05:33.853Z,1.95
2019-03-11T12:08:02.318Z,2.45
2019-03-11T12:10:32.317Z,1.92
2019-03-11T12:13:00.834Z,1.55
2019-03-11T12:15:32.829Z,1.90
2019-03-11T12:18:04.628Z,1.92
2019-03-11T12:20:33.148Z,1.77
2019-03-11T12:23:01.696Z,1.72
2019-03-11T12:25:30.215Z,1.57
2019-03-11T12:27:59.394Z,1.30
2019-03-11T12:30:38.351Z,2.65
2019-03-11T12:33:06.947Z,1.40
2019-03-11T12:35:35.421Z,1.67
2019-03-11T12:38:05.061Z,2.00
2019-03-11T12:40:33.624Z,2.55
2019-03-11T12:43:04.352Z,2.25
2019-03-11T12:45:32.829Z,2.47
2019-03-11T12:48:01.288Z,1.47
2019-03-11T12:50:33.137Z,2.10
2019-03-11T12:53:02.918Z,1.98
2019-03-11T12:55:31.446Z,2.05
2019-03-11T12:57:59.946Z,2.10
2019-03-11T13:00:28.413Z,2.25
2019-03-11T13:02:56.896Z,1.80
2019-03-11T13:05:26.846Z,1.70
2019-03-11T13:07:56.158Z,2.25
2019-03-11T13:10:26.755Z,2.25
2019-03-11T13:12:58.927Z,1.95
2019-03-11T13:15:29.213Z,2.15
2019-03-11T13:18:17.041Z,2.50
2019-03-11T13:20:48.284Z,2.25
2019-03-11T13:23:16.734Z,2.40
2019-03-11T13:25:46.887Z,2.42
2019-03-11T13:28:15.327Z,2.92
2019-03-11T13:30:43.886Z,2.20
2019-03-11T13:33:12.480Z,2.50
2019-03-11T13:35:42.232Z,3.95
2019-03-11T13:38:11.363Z,1.80
2019-03-11T13:40:40.269Z,2.25
2019-03-11T13:43:08.769Z,2.30
2019-03-11T13:45:37.225Z,2.35
2019-03-11T13:48:05.940Z,1.65
2019-03-11T13:50:34.663Z,3.45
2019-03-11T13:53:03.263Z,2.35
2019-03-11T13:55:34.460Z,2.47
2019-03-11T13:58:06.615Z,2.77
2019-03-11T14:00:35.242Z,1.30
2019-03-11T14:03:03.766Z,1.57
2019-03-11T14:05:32.209Z,2.10
2019-03-11T14:08:06.599Z,2.10
2019-03-11T14:10:35.076Z,2.15
2019-03-11T14:13:03.532Z,2.15
2019-03-11T14:15:32.651Z,2.40
2019-03-11T14:18:01.257Z,2.02
2019-03-11T14:20:29.786Z,2.75
2019-03-11T14:22:58.232Z,2.55
2019-03-11T14:25:30.506Z,2.00
2019-03-11T14:27:59.019Z,2.22
2019-03-11T14:30:27.542Z,2.55
2019-03-11T14:32:56.018Z,2.45
2019-03-11T14:35:24.466Z,2.15
2019-03-11T14:37:53.606Z,2.98
2019-03-11T14:40:22.162Z,2.60
2019-03-11T14:42:52.091Z,3.17
2019-03-11T14:45:24.323Z,2.15
2019-03-11T14:47:52.864Z,2.12
2019-03-11T14:50:25.581Z,1.70
2019-03-11T14:52:54.095Z,2.52
2019-03-11T14:55:22.828Z,2.00
2019-03-11T14:57:51.278Z,2.90
2019-03-11T15:00:21.028Z,2.52
2019-03-11T15:02:50.151Z,2.45
2019-03-11T15:05:20.163Z,2.57
2019-03-11T15:07:48.687Z,2.45
2019-03-11T15:10:24.873Z,3.17
2019-03-11T15:12:57.241Z,2.10
2019-03-11T15:15:26.338Z,2.80
2019-03-11T15:17:54.895Z,2.42
2019-03-11T15:20:23.357Z,2.70
2019-03-11T15:22:51.901Z,2.60
2019-03-11T15:25:20.561Z,2.90
2019-03-11T15:27:49.089Z,3.23
2019-03-11T15:30:24.853Z,2.67
2019-03-11T15:32:53.391Z,2.37
2019-03-11T15:35:21.991Z,2.37
2019-03-11T15:37:51.887Z,2.05
2019-03-11T15:40:20.445Z,2.30
2019-03-11T15:42:48.972Z,2.75
2019-03-11T15:45:20.150Z,2.90
2019-03-11T15:47:48.688Z,3.02
2019-03-11T15:50:24.337Z,2.77
2019-03-11T15:52:55.155Z,3.00
2019-03-11T15:55:25.355Z,3.20
2019-03-11T15:57:53.814Z,2.40
2019-03-11T16:00:23.535Z,2.85
2019-03-11T16:02:53.439Z,2.83
2019-03-11T16:05:27.792Z,2.62
2019-03-11T16:07:56.299Z,3.00
2019-03-11T16:10:26.042Z,2.80
2019-03-11T16:12:54.555Z,3.30
2019-03-11T16:15:26.323Z,2.40
2019-03-11T16:17:56.908Z,3.35
2019-03-11T16:20:26.793Z,2.80
2019-03-11T16:22:55.383Z,2.58
2019-03-11T16:25:23.891Z,3.08
2019-03-11T16:27:55.153Z,2.50
2019-03-11T16:30:29.257Z,3.10
2019-03-11T16:33:00.259Z,3.33
2019-03-11T16:35:31.390Z,2.08
2019-03-11T16:37:59.919Z,2.73
2019-03-11T16:40:28.539Z,2.87
2019-03-11T16:42:57.000Z,2.70
2019-03-11T16:45:26.830Z,3.00
2019-03-11T16:47:55.483Z,4.12
2019-03-11T16:50:26.715Z,3.25
2019-03-11T16:52:55.860Z,2.55
2019-03-11T16:55:33.258Z,2.62
2019-03-11T16:58:02.576Z,2.77
2019-03-11T17:00:32.892Z,3.15
2019-03-11T17:03:02.124Z,3.08
2019-03-11T17:05:30.880Z,3.40
2019-03-11T17:08:00.334Z,3.10
2019-03-11T17:10:30.019Z,3.70
2019-03-11T17:13:00.041Z,3.20
2019-03-11T17:15:30.103Z,2.92
2019-03-11T17:18:02.907Z,2.55
2019-03-11T17:20:31.416Z,2.03
2019-03-11T17:22:59.877Z,2.47
2019-03-11T17:25:28.339Z,2.17
2019-03-11T17:27:56.868Z,3.00
2019-03-11T17:30:28.612Z,3.08
2019-03-11T17:32:57.412Z,2.70
2019-03-11T17:35:25.937Z,1.50
2019-03-11T17:37:55.275Z,2.10
2019-03-11T17:40:25.062Z,2.52
2019-03-11T17:42:57.548Z,3.25
2019-03-11T17:45:26.317Z,2.60
2019-03-11T17:47:54.772Z,3.02
2019-03-11T17:50:25.788Z,3.08
2019-03-11T17:52:55.502Z,2.58
2019-03-11T17:55:33.359Z,3.60
2019-03-11T17:58:02.427Z,2.35
2019-03-11T18:00:54.497Z,3.35
2019-03-11T18:03:15.601Z,3.93
2019-03-11T18:05:43.888Z,2.83
2019-03-11T18:08:12.935Z,2.52
2019-03-11T18:10:43.767Z,2.62
2019-03-11T18:13:12.354Z,3.05
2019-03-11T18:15:44.199Z,2.90
2019-03-11T18:18:14.199Z,2.50
2019-03-11T18:20:42.848Z,2.33
2019-03-11T18:23:17.046Z,3.55
2019-03-11T18:25:47.887Z,3.22
2019-03-11T18:28:16.417Z,2.67
2019-03-11T18:30:51.508Z,2.55
2019-03-11T18:33:19.160Z,3.60
2019-03-11T18:35:47.669Z,3.08
2019-03-11T18:38:16.843Z,2.33
2019-03-11T18:40:45.361Z,4.03
2019-03-11T18:43:21.232Z,2.85
2019-03-11T18:45:49.844Z,3.33
2019-03-11T18:48:18.372Z,2.87
2019-03-11T18:50:49.929Z,3.33
2019-03-11T18:53:19.526Z,3.77
2019-03-11T18:55:49.834Z,3.20
2019-03-11T18:58:18.326Z,3.30
2019-03-11T19:00:46.899Z,3.42
2019-03-11T19:03:18.264Z,3.17
2019-03-11T19:05:48.581Z,3.25
2019-03-11T19:08:19.637Z,3.35
2019-03-11T19:10:48.509Z,3.25
2019-03-11T19:13:17.320Z,4.33
2019-03-11T19:15:46.058Z,3.15
2019-03-11T19:18:14.587Z,3.70
2019-03-11T19:20:43.871Z,2.87
2019-03-11T19:23:12.428Z,3.30
2019-03-11T19:25:41.738Z,4.28
2019-03-11T19:28:11.904Z,3.25
2019-03-11T19:30:41.766Z,3.08
2019-03-11T19:33:11.391Z,3.40
2019-03-11T19:35:40.932Z,2.83
2019-03-11T19:38:10.577Z,3.30
2019-03-11T19:40:40.606Z,3.75
2019-03-11T19:43:10.689Z,3.92
2019-03-11T19:45:39.257Z,4.30
2019-03-11T19:48:07.885Z,3.80
2019-03-11T19:50:36.464Z,3.80
2019-03-11T19:53:05.299Z,3.55
2019-03-11T19:55:34.226Z,3.85
2019-03-11T19:58:02.854Z,3.85
2019-03-11T20:00:32.966Z,3.22
2019-03-11T20:03:03.725Z,3.62
2019-03-11T20:05:44.548Z,3.98
2019-03-11T20:08:13.160Z,4.00
2019-03-11T20:10:41.790Z,3.27
2019-03-11T20:13:10.471Z,2.92
2019-03-11T20:15:40.090Z,3.62
2019-03-11T20:18:08.704Z,3.15
2019-03-11T20:20:38.856Z,3.12
2019-03-11T20:23:07.512Z,3.33
2019-03-11T20:25:38.583Z,3.00
2019-03-11T20:28:07.225Z,3.47
2019-03-11T20:30:36.311Z,3.20
2019-03-11T20:33:06.680Z,3.78
2019-03-11T20:35:36.747Z,4.08
2019-03-11T20:38:05.311Z,3.67
2019-03-11T20:40:35.550Z,3.65
2019-03-11T20:43:04.700Z,3.90
2019-03-11T20:45:34.474Z,4.35
2019-03-11T20:48:05.993Z,3.90
2019-03-11T20:50:41.930Z,4.58
2019-03-11T20:53:05.976Z,5.05
2019-03-11T20:55:36.083Z,4.65
2019-03-11T20:58:06.270Z,4.37
2019-03-11T21:00:34.761Z,4.33
2019-03-11T21:03:04.763Z,5.72
2019-03-11T21:05:36.481Z,4.85
2019-03-11T21:08:06.779Z,4.10
2019-03-11T21:10:36.920Z,4.37
2019-03-11T21:13:12.812Z,4.97
2019-03-11T21:15:42.496Z,4.53
2019-03-11T21:18:12.370Z,4.55
2019-03-11T21:20:41.334Z,4.05
2019-03-11T21:23:10.713Z,3.92
2019-03-11T21:25:42.164Z,4.22
2019-03-11T21:28:13.053Z,3.95
2019-03-11T21:30:43.131Z,5.12
2019-03-11T21:33:11.657Z,4.25
2019-03-11T21:35:43.465Z,4.15
2019-03-11T21:38:12.695Z,4.22
2019-03-11T21:40:41.205Z,4.00
2019-03-11T21:43:10.186Z,3.75
2019-03-11T21:45:40.020Z,4.45
2019-03-11T21:48:08.642Z,4.37
2019-03-11T21:50:39.712Z,4.47
2019-03-11T21:53:08.221Z,5.15
2019-03-11T21:55:36.780Z,4.45
2019-03-11T21:58:13.014Z,4.47
2019-03-11T22:00:36.315Z,3.72
2019-03-11T22:03:05.190Z,4.25
2019-03-11T22:05:33.679Z,3.80
2019-03-11T22:08:02.247Z,4.30
2019-03-11T22:10:30.730Z,4.12
2019-03-11T22:12:59.258Z,3.37
2019-03-11T22:15:32.816Z,3.58
2019-03-11T22:18:01.302Z,4.40
2019-03-11T22:20:29.753Z,3.62
2019-03-11T22:23:00.350Z,3.85
2019-03-11T22:25:30.615Z,4.12
2019-03-11T22:27:59.082Z,4.42
2019-03-11T22:30:27.633Z,4.17
2019-03-11T22:32:56.173Z,4.30
2019-03-11T22:35:28.939Z,4.40
2019-03-11T22:37:55.029Z,3.90
2019-03-11T22:40:25.101Z,4.37
2019-03-11T22:42:55.908Z,3.67
2019-03-11T22:45:24.464Z,3.45
2019-03-11T22:47:54.449Z,4.67
2019-03-11T22:50:23.581Z,3.83
2019-03-11T22:52:52.757Z,3.67
2019-03-11T22:55:22.259Z,4.08
2019-03-11T22:57:52.424Z,4.25
2019-03-11T23:00:41.136Z,4.20
2019-03-11T23:03:11.268Z,4.03
2019-03-11T23:05:56.611Z,4.42
2019-03-11T23:08:09.954Z,3.62
2019-03-11T23:10:39.947Z,3.98
2019-03-11T23:13:08.530Z,3.75
2019-03-11T23:15:36.976Z,3.80
2019-03-11T23:18:05.520Z,3.72
2019-03-11T23:20:36.297Z,3.98
2019-03-11T23:23:04.828Z,3.50
2019-03-11T23:25:33.851Z,4.47
2019-03-11T23:28:02.405Z,3.90
2019-03-11T23:30:32.480Z,4.00
2019-03-11T23:33:00.967Z,3.77
2019-03-11T23:35:31.051Z,3.45
2019-03-11T23:37:59.554Z,3.67
2019-03-11T23:40:28.168Z,3.70
2019-03-11T23:42:58.016Z,3.60
2019-03-11T23:45:26.614Z,3.45
2019-03-11T23:47:55.132Z,3.77
2019-03-11T23:50:23.707Z,4.00
2019-03-11T23:52:52.273Z,3.85
2019-03-11T23:55:22.478Z,3.77
2019-03-11T23:57:52.610Z,3.92
